createdAt,value
2019-03-05T00:00:26.525Z,98255.14
2019-03-05T00:02:54.872Z,98268.61
2019-03-05T00:05:23.431Z,98249.11
2019-03-05T00:07:51.678Z,98269.13
2019-03-05T00:10:20.203Z,98245.92
2019-03-05T00:12:48.438Z,98260.99
2019-03-05T00:15:19.313Z,98258.62
2019-03-05T00:17:47.540Z,98259.89
2019-03-05T00:20:15.769Z,98265.06
2019-03-05T00:22:44.003Z,98262.52
2019-03-05T00:25:24.495Z,98267.62
2019-03-05T00:28:01.687Z,98267.84
2019-03-05T00:30:48.208Z,98267.44
2019-03-05T00:33:42.356Z,98260.18
2019-03-05T00:36:16.666Z,98266.85
2019-03-05T00:39:06.341Z,98258.75
2019-03-05T00:41:58.206Z,98252.30
2019-03-05T00:45:03.034Z,98256.89
2019-03-05T00:47:55.091Z,98253.41
2019-03-05T00:50:35.530Z,98253.63
2019-03-05T00:53:16.027Z,98257.80
2019-03-05T00:56:05.732Z,98256.05
2019-03-05T00:58:40.195Z,98263.28
2019-03-05T01:01:23.011Z,98248.77
2019-03-05T01:04:03.068Z,98242.13
2019-03-05T01:06:31.742Z,98258.45
2019-03-05T01:09:00.049Z,98272.97
2019-03-05T01:11:28.624Z,98271.28
2019-03-05T01:13:56.927Z,98275.23
2019-03-05T01:16:27.078Z,98275.52
2019-03-05T01:18:55.303Z,98276.52
2019-03-05T01:21:23.550Z,98281.22
2019-03-05T01:23:51.782Z,98274.42
2019-03-05T01:26:20.305Z,98271.95
2019-03-05T01:28:48.538Z,98276.11
2019-03-05T01:31:34.823Z,98282.56
2019-03-05T01:34:16.690Z,98283.37
2019-03-05T01:36:46.567Z,98285.45
2019-03-05T01:39:32.550Z,98287.20
2019-03-05T01:42:00.824Z,98292.72
2019-03-05T01:44:29.056Z,98290.22
2019-03-05T01:46:57.298Z,98291.91
2019-03-05T01:49:25.527Z,98297.08
2019-03-05T01:51:54.215Z,98297.51
2019-03-05T01:54:22.450Z,98309.66
2019-03-05T01:56:50.677Z,98303.80
2019-03-05T01:59:19.143Z,98308.45
2019-03-05T02:01:47.370Z,98314.49
2019-03-05T02:04:15.604Z,98323.91
2019-03-05T02:06:43.832Z,98328.08
2019-03-05T02:09:12.436Z,98329.45
2019-03-05T02:11:40.664Z,98324.45
2019-03-05T02:14:08.969Z,98319.88
2019-03-05T02:16:37.190Z,98320.00
2019-03-05T02:19:36.939Z,98317.57
2019-03-05T02:22:08.023Z,98313.80
2019-03-05T02:24:48.244Z,98313.33
2019-03-05T02:27:27.932Z,98309.31
2019-03-05T02:30:02.464Z,98312.68
2019-03-05T02:32:39.581Z,98309.31
2019-03-05T02:35:16.626Z,98316.92
2019-03-05T02:38:08.700Z,98322.44
2019-03-05T02:40:45.808Z,98322.78
2019-03-05T02:43:26.112Z,98320.28
2019-03-05T02:46:06.119Z,98311.56
2019-03-05T02:48:55.320Z,98308.57
2019-03-05T02:51:26.716Z,98310.00
2019-03-05T02:54:14.609Z,98311.75
2019-03-05T02:56:46.005Z,98315.98
2019-03-05T02:59:13.209Z,98332.13
2019-03-05T03:01:51.769Z,98318.02
2019-03-05T03:04:21.638Z,98318.02
2019-03-05T03:06:50.096Z,98308.60
2019-03-05T03:09:29.901Z,98311.22
2019-03-05T03:11:58.211Z,98315.86
2019-03-05T03:14:26.673Z,98324.99
2019-03-05T03:16:55.121Z,98331.91
2019-03-05T03:19:23.356Z,98337.08
2019-03-05T03:21:51.584Z,98344.22
2019-03-05T03:24:19.824Z,98345.74
2019-03-05T03:26:48.052Z,98332.24
2019-03-05T03:29:16.517Z,98338.75
2019-03-05T03:31:44.744Z,98335.05
2019-03-05T03:34:13.210Z,98333.64
2019-03-05T03:36:41.431Z,98339.69
2019-03-05T03:39:09.676Z,98346.61
2019-03-05T03:41:37.903Z,98354.56
2019-03-05T03:44:06.366Z,98361.59
2019-03-05T03:46:34.827Z,98355.09
2019-03-05T03:49:03.281Z,98357.42
2019-03-05T03:51:31.523Z,98351.44
2019-03-05T03:53:59.972Z,98349.63
2019-03-05T03:56:28.431Z,98355.37
2019-03-05T03:58:56.666Z,98362.23
2019-03-05T04:01:24.905Z,98360.08
2019-03-05T04:03:53.354Z,98358.33
2019-03-05T04:06:21.583Z,98358.73
2019-03-05T04:08:50.045Z,98359.08
2019-03-05T04:11:18.293Z,98364.41
2019-03-05T04:13:46.511Z,98356.52
2019-03-05T04:16:14.745Z,98360.29
2019-03-05T04:18:42.966Z,98354.52
2019-03-05T04:21:11.204Z,98357.72
2019-03-05T04:23:39.428Z,98360.34
2019-03-05T04:26:07.884Z,98360.14
2019-03-05T04:28:36.107Z,98364.09
2019-03-05T04:31:04.339Z,98368.50
2019-03-05T04:33:32.809Z,98371.80
2019-03-05T04:36:01.258Z,98379.86
2019-03-05T04:38:29.496Z,98378.58
2019-03-05T04:40:57.717Z,98393.80
2019-03-05T04:43:25.953Z,98396.41
2019-03-05T04:46:01.750Z,98396.78
2019-03-05T04:48:30.227Z,98393.55
2019-03-05T04:51:00.084Z,98392.90
2019-03-05T04:53:28.318Z,98388.86
2019-03-05T04:55:56.544Z,98382.19
2019-03-05T04:58:24.781Z,98386.36
2019-03-05T05:00:56.285Z,98384.89
2019-03-05T05:03:24.528Z,98378.66
2019-03-05T05:05:52.754Z,98379.03
2019-03-05T05:08:20.989Z,98373.39
2019-03-05T05:10:49.220Z,98378.03
2019-03-05T05:13:17.450Z,98380.41
2019-03-05T05:15:45.674Z,98376.80
2019-03-05T05:18:13.913Z,98373.43
2019-03-05T05:20:42.141Z,98379.69
2019-03-05T05:23:10.371Z,98374.02
2019-03-05T05:25:38.826Z,98379.59
2019-03-05T05:28:07.051Z,98367.06
2019-03-05T05:30:39.652Z,98370.63
2019-03-05T05:33:08.660Z,98368.48
2019-03-05T05:35:36.951Z,98368.34
2019-03-05T05:38:05.243Z,98367.23
2019-03-05T05:40:35.885Z,98374.62
2019-03-05T05:43:05.798Z,98375.43
2019-03-05T05:45:45.003Z,98380.47
2019-03-05T05:48:13.231Z,98392.28
2019-03-05T05:50:41.467Z,98383.42
2019-03-05T05:53:09.919Z,98383.55
2019-03-05T05:55:38.153Z,98393.63
2019-03-05T05:58:06.381Z,98387.63
2019-03-05T06:00:36.255Z,98387.16
2019-03-05T06:03:04.711Z,98384.83
2019-03-05T06:05:33.170Z,98368.44
2019-03-05T06:08:01.397Z,98385.91
2019-03-05T06:10:29.633Z,98388.45
2019-03-05T06:12:57.865Z,98388.62
2019-03-05T06:15:26.102Z,98387.01
2019-03-05T06:17:54.322Z,98385.52
2019-03-05T06:20:22.560Z,98395.03
2019-03-05T06:22:50.784Z,98390.80
2019-03-05T06:25:19.251Z,98388.31
2019-03-05T06:27:47.699Z,98384.61
2019-03-05T06:30:23.102Z,98395.05
2019-03-05T06:32:51.336Z,98396.73
2019-03-05T06:35:19.581Z,98388.79
2019-03-05T06:37:47.799Z,98382.69
2019-03-05T06:40:17.794Z,98386.99
2019-03-05T06:42:46.253Z,98388.67
2019-03-05T06:45:16.315Z,98383.75
2019-03-05T06:47:44.555Z,98385.56
2019-03-05T06:50:14.647Z,98388.78
2019-03-05T06:52:43.106Z,98390.46
2019-03-05T06:55:13.073Z,98395.66
2019-03-05T06:57:41.307Z,98399.22
2019-03-05T07:00:22.487Z,98406.08
2019-03-05T07:02:50.949Z,98412.72
2019-03-05T07:05:55.434Z,98398.19
2019-03-05T07:08:23.887Z,98403.58
2019-03-05T07:11:01.522Z,98399.59
2019-03-05T07:13:30.700Z,98395.36
2019-03-05T07:16:02.081Z,98397.66
2019-03-05T07:18:36.564Z,98400.63
2019-03-05T07:21:32.857Z,98389.71
2019-03-05T07:24:16.083Z,98399.25
2019-03-05T07:26:44.318Z,98401.61
2019-03-05T07:29:12.543Z,98397.50
2019-03-05T07:31:40.789Z,98400.45
2019-03-05T07:34:10.977Z,98401.21
2019-03-05T07:36:39.226Z,98403.34
2019-03-05T07:39:10.634Z,98395.76
2019-03-05T07:41:39.198Z,98395.06
2019-03-05T07:44:07.433Z,98382.09
2019-03-05T07:46:35.740Z,98388.14
2019-03-05T07:49:04.235Z,98384.36
2019-03-05T07:51:32.462Z,98388.14
2019-03-05T07:54:01.003Z,98389.59
2019-03-05T07:56:29.224Z,98389.65
2019-03-05T07:58:57.693Z,98390.12
2019-03-05T08:01:25.927Z,98398.31
2019-03-05T08:03:54.157Z,98404.48
2019-03-05T08:06:22.387Z,98390.84
2019-03-05T08:09:27.412Z,98398.20
2019-03-05T08:12:01.531Z,98396.62
2019-03-05T08:14:38.866Z,98370.37
2019-03-05T08:17:07.478Z,98392.85
2019-03-05T08:19:35.728Z,98391.02
2019-03-05T08:22:04.830Z,98394.25
2019-03-05T08:24:33.075Z,98385.60
2019-03-05T08:27:01.311Z,98395.20
2019-03-05T08:29:29.547Z,98394.09
2019-03-05T08:31:58.087Z,98395.72
2019-03-05T08:34:26.325Z,98407.30
2019-03-05T08:36:54.590Z,98407.36
2019-03-05T08:39:23.131Z,98413.64
2019-03-05T08:41:51.364Z,98409.25
2019-03-05T08:44:19.974Z,98403.92
2019-03-05T08:46:48.206Z,98402.06
2019-03-05T08:49:17.973Z,98406.02
2019-03-05T08:51:46.245Z,98405.96
2019-03-05T08:54:14.488Z,98397.53
2019-03-05T08:56:42.723Z,98401.37
2019-03-05T08:59:11.188Z,98416.55
2019-03-05T09:01:39.418Z,98412.41
2019-03-05T09:04:07.891Z,98419.42
2019-03-05T09:06:36.186Z,98414.82
2019-03-05T09:09:06.532Z,98417.84
2019-03-05T09:11:34.762Z,98415.11
2019-03-05T09:14:03.021Z,98418.48
2019-03-05T09:16:31.487Z,98427.95
2019-03-05T09:18:59.721Z,98428.18
2019-03-05T09:21:27.958Z,98435.36
2019-03-05T09:23:56.197Z,98437.87
2019-03-05T09:26:24.441Z,98445.78
2019-03-05T09:28:52.673Z,98443.28
2019-03-05T09:31:20.914Z,98449.15
2019-03-05T09:33:49.430Z,98445.63
2019-03-05T09:36:18.007Z,98448.13
2019-03-05T09:38:46.459Z,98446.66
2019-03-05T09:41:14.698Z,98448.57
2019-03-05T09:43:42.935Z,98446.73
2019-03-05T09:46:11.427Z,98447.48
2019-03-05T09:48:39.663Z,98450.56
2019-03-05T09:51:08.183Z,98452.90
2019-03-05T09:53:36.416Z,98457.61
2019-03-05T09:56:05.697Z,98456.42
2019-03-05T09:58:33.994Z,98456.55
2019-03-05T10:01:02.478Z,98459.91
2019-03-05T10:03:30.700Z,98455.73
2019-03-05T10:05:58.947Z,98460.22
2019-03-05T10:08:32.365Z,98468.36
2019-03-05T10:10:57.133Z,98457.52
2019-03-05T10:13:25.393Z,98462.75
2019-03-05T10:15:53.885Z,98466.66
2019-03-05T10:18:22.366Z,98459.91
2019-03-05T10:20:50.888Z,98452.50
2019-03-05T10:23:19.128Z,98452.44
2019-03-05T10:25:47.351Z,98458.26
2019-03-05T10:28:15.940Z,98458.66
2019-03-05T10:30:44.343Z,98464.59
2019-03-05T10:33:14.050Z,98475.06
2019-03-05T10:35:42.520Z,98477.95
2019-03-05T10:38:11.933Z,98475.43
2019-03-05T10:40:46.468Z,98471.06
2019-03-05T10:43:15.936Z,98482.23
2019-03-05T10:45:47.679Z,98481.70
2019-03-05T10:48:21.171Z,98483.99
2019-03-05T10:50:49.551Z,98469.99
2019-03-05T10:53:17.858Z,98486.24
2019-03-05T10:55:46.085Z,98488.65
2019-03-05T10:58:16.766Z,98490.89
2019-03-05T11:00:55.842Z,98495.54
2019-03-05T11:03:26.779Z,98495.41
2019-03-05T11:05:55.082Z,98494.58
2019-03-05T11:08:24.846Z,98502.00
2019-03-05T11:10:53.968Z,98492.64
2019-03-05T11:13:22.273Z,98502.59
2019-03-05T11:15:53.671Z,98495.33
2019-03-05T11:18:29.434Z,98503.81
2019-03-05T11:20:52.353Z,98487.59
2019-03-05T11:23:20.595Z,98506.70
2019-03-05T11:25:49.125Z,98502.66
2019-03-05T11:28:17.490Z,98504.21
2019-03-05T11:30:45.680Z,98515.63
2019-03-05T11:33:13.988Z,98507.48
2019-03-05T11:35:42.443Z,98509.94
2019-03-05T11:38:11.017Z,98505.03
2019-03-05T11:40:39.517Z,98503.17
2019-03-05T11:43:12.950Z,98506.42
2019-03-05T11:45:42.335Z,98499.63
2019-03-05T11:48:10.874Z,98498.45
2019-03-05T11:50:39.114Z,98506.14
2019-03-05T11:53:07.359Z,98504.59
2019-03-05T11:55:35.833Z,98515.83
2019-03-05T11:58:04.072Z,98515.36
2019-03-05T12:00:43.899Z,98524.97
2019-03-05T12:03:12.129Z,98533.34
2019-03-05T12:05:40.594Z,98536.91
2019-03-05T12:08:08.822Z,98526.62
2019-03-05T12:10:37.064Z,98527.53
2019-03-05T12:13:05.468Z,98528.00
2019-03-05T12:15:36.873Z,98526.66
2019-03-05T12:18:05.280Z,98535.45
2019-03-05T12:20:33.534Z,98526.21
2019-03-05T12:23:02.472Z,98524.61
2019-03-05T12:25:31.088Z,98527.41
2019-03-05T12:28:09.766Z,98520.08
2019-03-05T12:30:31.152Z,98523.05
2019-03-05T12:32:59.572Z,98519.77
2019-03-05T12:35:27.822Z,98523.37
2019-03-05T12:37:56.049Z,98522.20
2019-03-05T12:40:25.430Z,98529.89
2019-03-05T12:42:53.670Z,98524.56
2019-03-05T12:45:23.381Z,98517.86
2019-03-05T12:47:52.046Z,98525.45
2019-03-05T12:50:28.518Z,98525.62
2019-03-05T12:52:57.125Z,98528.19
2019-03-05T12:55:25.743Z,98520.09
2019-03-05T12:57:53.976Z,98525.45
2019-03-05T13:00:26.197Z,98529.02
2019-03-05T13:02:54.564Z,98527.59
2019-03-05T13:05:23.206Z,98530.46
2019-03-05T13:07:52.513Z,98530.25
2019-03-05T13:10:35.269Z,98521.78
2019-03-05T13:12:58.772Z,98516.66
2019-03-05T13:15:31.910Z,98521.02
2019-03-05T13:18:00.139Z,98520.80
2019-03-05T13:20:28.381Z,98525.92
2019-03-05T13:22:56.610Z,98522.73
2019-03-05T13:25:28.412Z,98529.72
2019-03-05T13:27:57.558Z,98530.77
2019-03-05T13:30:27.089Z,98522.06
2019-03-05T13:32:59.245Z,98523.22
2019-03-05T13:35:30.259Z,98530.83
2019-03-05T13:37:58.897Z,98528.94
2019-03-05T13:40:30.105Z,98531.27
2019-03-05T13:42:59.051Z,98528.48
2019-03-05T13:45:27.618Z,98524.55
2019-03-05T13:48:08.246Z,98538.50
2019-03-05T13:50:48.660Z,98538.26
2019-03-05T13:53:36.758Z,98549.14
2019-03-05T13:56:20.143Z,98545.69
2019-03-05T13:59:09.167Z,98546.41
2019-03-05T14:01:37.642Z,98549.21
2019-03-05T14:04:17.983Z,98539.91
2019-03-05T14:07:04.692Z,98545.47
2019-03-05T14:09:31.927Z,98551.46
2019-03-05T14:12:00.157Z,98546.28
2019-03-05T14:14:28.398Z,98561.50
2019-03-05T14:16:58.650Z,98563.34
2019-03-05T14:19:27.141Z,98565.61
2019-03-05T14:21:55.398Z,98565.34
2019-03-05T14:24:23.623Z,98568.71
2019-03-05T14:26:51.847Z,98570.74
2019-03-05T14:29:20.203Z,98567.81
2019-03-05T14:31:48.445Z,98566.64
2019-03-05T14:34:16.934Z,98563.30
2019-03-05T14:36:45.167Z,98563.64
2019-03-05T14:39:26.422Z,98564.18
2019-03-05T14:41:54.781Z,98568.78
2019-03-05T14:44:23.042Z,98562.13
2019-03-05T14:46:56.376Z,98570.63
2019-03-05T14:49:24.616Z,98579.98
2019-03-05T14:51:52.844Z,98583.51
2019-03-05T14:54:21.764Z,98581.00
2019-03-05T14:56:50.495Z,98579.03
2019-03-05T14:59:19.050Z,98592.06
2019-03-05T15:01:47.431Z,98583.81
2019-03-05T15:04:15.690Z,98582.55
2019-03-05T15:06:44.038Z,98589.11
2019-03-05T15:09:12.330Z,98593.39
2019-03-05T15:11:40.532Z,98600.75
2019-03-05T15:14:09.057Z,98601.66
2019-03-05T15:16:37.301Z,98586.38
2019-03-05T15:19:05.738Z,98596.42
2019-03-05T15:21:34.220Z,98603.78
2019-03-05T15:24:02.521Z,98612.11
2019-03-05T15:26:30.782Z,98608.91
2019-03-05T15:28:59.035Z,98609.50
2019-03-05T15:31:27.478Z,98609.55
2019-03-05T15:33:55.755Z,98614.63
2019-03-05T15:36:24.297Z,98626.30
2019-03-05T15:38:52.904Z,98621.08
2019-03-05T15:41:21.187Z,98611.36
2019-03-05T15:43:49.375Z,98617.94
2019-03-05T15:46:17.959Z,98627.95
2019-03-05T15:48:46.393Z,98622.37
2019-03-05T15:51:14.660Z,98623.20
2019-03-05T15:56:11.419Z,98617.51
2019-03-05T15:58:39.893Z,98626.12
2019-03-05T16:01:09.927Z,98632.67
2019-03-05T16:03:38.355Z,98631.70
2019-03-05T16:06:06.901Z,98628.43
2019-03-05T16:08:35.393Z,98632.89
2019-03-05T16:11:03.962Z,98638.46
2019-03-05T16:13:32.778Z,98638.05
2019-03-05T16:16:01.068Z,98645.62
2019-03-05T16:18:29.301Z,98651.98
2019-03-05T16:20:58.116Z,98652.35
2019-03-05T16:23:28.402Z,98653.63
2019-03-05T16:25:57.827Z,98657.50
2019-03-05T16:28:26.287Z,98677.39
2019-03-05T16:30:59.066Z,98662.09
2019-03-05T16:33:32.485Z,98693.55
2019-03-05T16:36:00.815Z,98686.42
2019-03-05T16:38:51.119Z,98684.81
2019-03-05T16:41:23.645Z,98694.29
2019-03-05T16:43:56.245Z,98698.52
2019-03-05T16:46:26.130Z,98698.97
2019-03-05T16:49:01.782Z,98710.17
2019-03-05T16:51:34.650Z,98709.44
2019-03-05T16:54:07.058Z,98718.48
2019-03-05T16:56:45.594Z,98721.59
2019-03-05T16:59:18.399Z,98722.64
2019-03-05T17:01:48.350Z,98725.92
2019-03-05T17:04:21.240Z,98732.59
2019-03-05T17:07:07.693Z,98736.75
2019-03-05T17:09:46.795Z,98739.54
2019-03-05T17:12:15.368Z,98735.41
2019-03-05T17:14:43.600Z,98742.70
2019-03-05T17:17:11.973Z,98749.69
2019-03-05T17:19:40.497Z,98743.11
2019-03-05T17:22:08.741Z,98761.66
2019-03-05T17:24:36.968Z,98765.25
2019-03-05T17:27:05.196Z,98762.30
2019-03-05T17:29:33.665Z,98765.22
2019-03-05T17:32:02.301Z,98774.63
2019-03-05T17:34:30.537Z,98784.64
2019-03-05T17:36:59.067Z,98790.78
2019-03-05T17:39:27.542Z,98795.34
2019-03-05T17:41:55.764Z,98794.45
2019-03-05T17:44:24.002Z,98801.64
2019-03-05T17:46:52.459Z,98815.83
2019-03-05T17:49:20.710Z,98817.33
2019-03-05T17:51:48.936Z,98818.86
2019-03-05T17:54:17.178Z,98814.63
2019-03-05T17:56:45.408Z,98825.13
2019-03-05T17:59:13.957Z,98827.08
2019-03-05T18:01:42.437Z,98834.64
2019-03-05T18:04:10.685Z,98838.99
2019-03-05T18:06:38.912Z,98847.42
2019-03-05T18:09:07.704Z,98845.94
2019-03-05T18:11:36.373Z,98849.17
2019-03-05T18:14:04.917Z,98859.72
2019-03-05T18:16:33.147Z,98860.26
2019-03-05T18:19:01.390Z,98871.58
2019-03-05T18:21:29.625Z,98868.84
2019-03-05T18:23:58.028Z,98867.55
2019-03-05T18:26:26.261Z,98872.09
2019-03-05T18:28:54.531Z,98879.89
2019-03-05T18:31:22.776Z,98881.84
2019-03-05T18:33:51.271Z,98880.78
2019-03-05T18:36:19.921Z,98873.16
2019-03-05T18:38:48.149Z,98876.38
2019-03-05T18:41:16.634Z,98884.41
2019-03-05T18:43:45.196Z,98875.50
2019-03-05T18:46:13.900Z,98881.90
2019-03-05T18:48:42.212Z,98887.67
2019-03-05T18:51:10.759Z,98890.74
2019-03-05T18:53:38.997Z,98892.96
2019-03-05T18:56:07.239Z,98867.95
2019-03-05T18:58:35.497Z,98887.94
2019-03-05T19:01:03.734Z,98899.14
2019-03-05T19:03:31.970Z,98904.86
2019-03-05T19:06:00.212Z,98907.27
2019-03-05T19:08:28.458Z,98912.87
2019-03-05T19:10:56.706Z,98922.73
2019-03-05T19:13:25.550Z,98919.06
2019-03-05T19:15:54.043Z,98914.16
2019-03-05T19:18:22.621Z,98926.98
2019-03-05T19:20:50.934Z,98926.50
2019-03-05T19:23:19.182Z,98937.12
2019-03-05T19:25:48.593Z,98939.20
2019-03-05T19:28:16.829Z,98933.93
2019-03-05T19:30:52.109Z,98943.14
2019-03-05T19:33:20.412Z,98948.33
2019-03-05T19:35:48.641Z,98946.73
2019-03-05T19:38:17.334Z,98964.21
2019-03-05T19:40:47.326Z,98955.52
2019-03-05T19:43:15.571Z,98965.64
2019-03-05T19:45:43.786Z,98963.80
2019-03-05T19:48:12.023Z,98969.19
2019-03-05T19:50:40.488Z,98972.94
2019-03-05T19:53:08.721Z,98969.66
2019-03-05T19:55:36.947Z,98969.09
2019-03-05T19:58:08.166Z,98982.97
2019-03-05T20:00:39.592Z,98979.89
2019-03-05T20:03:07.999Z,98976.86
2019-03-05T20:05:36.230Z,98985.79
2019-03-05T20:08:04.536Z,98990.25
2019-03-05T20:10:37.314Z,98990.88
2019-03-05T20:13:05.771Z,98997.05
2019-03-05T20:15:34.004Z,99001.41
2019-03-05T20:18:02.235Z,98995.58
2019-03-05T20:20:30.461Z,98991.53
2019-03-05T20:22:58.709Z,98989.13
2019-03-05T20:25:28.878Z,98989.58
2019-03-05T20:27:57.106Z,98989.58
2019-03-05T20:30:25.610Z,98995.08
2019-03-05T20:32:53.837Z,98998.36
2019-03-05T20:35:22.294Z,99001.94
2019-03-05T20:37:50.524Z,98997.85
2019-03-05T20:40:32.054Z,98997.85
2019-03-05T20:43:02.222Z,99003.34
2019-03-05T20:45:35.099Z,98998.08
2019-03-05T20:48:03.396Z,98998.08
2019-03-05T20:50:31.905Z,98987.30
2019-03-05T20:53:00.365Z,98983.64
2019-03-05T20:55:28.598Z,98994.15
2019-03-05T20:57:56.829Z,99014.81
2019-03-05T21:00:35.298Z,99014.29
2019-03-05T21:03:06.698Z,98992.17
2019-03-05T21:05:40.651Z,98992.17
2019-03-05T21:08:09.102Z,99017.58
2019-03-05T21:10:37.333Z,99016.00
2019-03-05T21:13:05.627Z,99016.00
2019-03-05T21:15:35.013Z,98996.52
2019-03-05T21:18:05.523Z,98996.52
2019-03-05T21:20:33.990Z,98991.03
2019-03-05T21:23:02.442Z,99008.16
2019-03-05T21:25:30.959Z,99008.16
2019-03-05T21:27:59.183Z,98994.05
2019-03-05T21:30:28.158Z,99004.56
2019-03-05T21:32:56.382Z,99015.31
2019-03-05T21:35:24.834Z,99015.31
2019-03-05T21:37:53.251Z,99014.12
2019-03-05T21:40:24.079Z,99014.12
2019-03-05T21:42:52.652Z,99010.30
2019-03-05T21:45:27.250Z,98997.11
2019-03-05T21:47:55.718Z,99013.25
2019-03-05T21:50:23.950Z,99002.70
2019-03-05T21:52:52.407Z,99011.97
2019-03-05T21:55:20.885Z,99022.39
2019-03-05T21:57:49.123Z,99022.39
2019-03-05T22:00:22.725Z,98997.30
2019-03-05T22:02:50.958Z,98997.30
2019-03-05T22:05:19.188Z,99026.11
2019-03-05T22:07:47.489Z,99025.94
2019-03-05T22:10:18.323Z,99010.16
2019-03-05T22:12:46.633Z,99018.08
2019-03-05T22:15:17.104Z,99018.34
2019-03-05T22:17:45.337Z,99018.48
2019-03-05T22:20:15.402Z,99010.74
2019-03-05T22:22:43.862Z,99022.65
2019-03-05T22:25:14.806Z,99026.65
2019-03-05T22:27:43.045Z,99014.86
2019-03-05T22:30:14.712Z,99022.99
2019-03-05T22:32:43.226Z,99018.34
2019-03-05T22:35:11.641Z,99019.70
2019-03-05T22:37:40.004Z,99019.70
2019-03-05T22:40:13.601Z,98994.11
2019-03-05T22:42:41.830Z,99013.81
2019-03-05T22:45:15.414Z,99016.92
2019-03-05T22:47:43.624Z,99016.92
2019-03-05T22:50:13.492Z,99016.92
2019-03-05T22:52:41.765Z,99005.45
2019-03-05T22:55:12.651Z,99028.92
2019-03-05T22:57:40.893Z,99028.92
2019-03-05T23:00:15.613Z,99027.16
2019-03-05T23:02:43.937Z,99021.72
2019-03-05T23:05:12.903Z,99017.95
2019-03-05T23:07:41.167Z,99017.95
2019-03-05T23:10:11.605Z,99016.27
2019-03-05T23:12:39.940Z,99016.27
2019-03-05T23:15:13.153Z,99034.08
2019-03-05T23:17:41.412Z,98987.79
2019-03-05T23:20:11.576Z,98987.79
2019-03-05T23:22:39.880Z,99021.27
2019-03-05T23:25:09.679Z,99017.91
2019-03-05T23:27:38.408Z,99009.16
2019-03-05T23:30:16.004Z,99010.03
2019-03-05T23:32:44.235Z,99020.86
2019-03-05T23:35:14.353Z,99017.98
2019-03-05T23:37:42.600Z,99015.92
2019-03-05T23:40:11.986Z,99021.27
2019-03-05T23:42:40.219Z,99026.13
2019-03-05T23:45:11.013Z,99026.06
2019-03-05T23:47:39.732Z,99017.11
2019-03-05T23:50:15.027Z,99017.59
2019-03-05T23:52:43.342Z,99018.81
2019-03-05T23:55:12.649Z,99020.06
2019-03-05T23:57:40.875Z,99011.29
